<?xml version='1.0' encoding='UTF-8'?><gpx version="1.1" creator="JPX - https://github.com/jenetics/jpx" xmlns="http://www.topografix.com/GPX/1/1"><trk><trkseg><trkpt lat="41.94572" lon="12.5485834"><ele>47.0</ele><time>2026-04-21T06:08:07.273Z</time></trkpt><trkpt lat="41.9456133" lon="12.548614"><ele>47.0</ele><time>2026-04-21T06:08:10.273Z</time></trkpt><trkpt lat="41.9455423" lon="12.5486276"><ele>47.0</ele><time>2026-04-21T06:08:14.273Z</time></trkpt><trkpt lat="41.942635" lon="12.5363567"><ele>46.6</ele><time>2026-04-21T06:20:37.203Z</time></trkpt><trkpt lat="41.9427083" lon="12.5361245"><ele>46.2</ele><time>2026-04-21T06:20:38.203Z</time></trkpt><trkpt lat="41.942777" lon="12.5360649"><ele>45.8</ele><time>2026-04-21T06:20:42.203Z</time></trkpt><trkpt lat="41.9427423" lon="12.536159"><ele>45.4</ele><time>2026-04-21T06:20:43.202Z</time></trkpt><trkpt lat="41.9427539" lon="12.5360642"><ele>45.0</ele><time>2026-04-21T06:20:48.202Z</time></trkpt><trkpt lat="41.94279" lon="12.5359752"><ele>45.0</ele><time>2026-04-21T06:20:51.203Z</time></trkpt><trkpt lat="41.9427357" lon="12.5359063"><ele>45.0</ele><time>2026-04-21T06:20:56.202Z</time></trkpt><trkpt lat="41.9427614" lon="12.5358166"><ele>45.0</ele><time>2026-04-21T06:21:02.202Z</time></trkpt><trkpt lat="41.9428277" lon="12.5358364"><ele>45.0</ele><time>2026-04-21T06:21:06.203Z</time></trkpt><trkpt lat="41.9428052" lon="12.5357445"><ele>45.0</ele><time>2026-04-21T06:21:35.271Z</time></trkpt><trkpt lat="41.9427535" lon="12.5356832"><ele>45.0</ele><time>2026-04-21T06:21:40.27Z</time></trkpt><trkpt lat="41.9426923" lon="12.5356584"><ele>45.0</ele><time>2026-04-21T06:21:47.271Z</time></trkpt><trkpt lat="41.9426319" lon="12.5355985"><ele>45.0</ele><time>2026-04-21T06:21:52.271Z</time></trkpt><trkpt lat="41.9425906" lon="12.5355272"><ele>45.0</ele><time>2026-04-21T06:21:58.271Z</time></trkpt><trkpt lat="41.9425693" lon="12.5354328"><ele>45.0</ele><time>2026-04-21T06:22:03.271Z</time></trkpt><trkpt lat="41.9425307" lon="12.5353294"><ele>45.0</ele><time>2026-04-21T06:22:06.271Z</time></trkpt><trkpt lat="41.9424855" lon="12.5352427"><ele>45.0</ele><time>2026-04-21T06:22:10.271Z</time></trkpt><trkpt lat="41.9424383" lon="12.5351658"><ele>45.0</ele><time>2026-04-21T06:22:13.271Z</time></trkpt><trkpt lat="41.9424339" lon="12.5350544"><ele>45.42857142857142</ele><time>2026-04-21T06:22:18.271Z</time></trkpt><trkpt lat="41.9424009" lon="12.5349723"><ele>45.85714285714286</ele><time>2026-04-21T06:22:24.271Z</time></trkpt><trkpt lat="41.9423745" lon="12.53488"><ele>46.285714285714285</ele><time>2026-04-21T06:22:30.271Z</time></trkpt><trkpt lat="41.9423848" lon="12.5347872"><ele>46.71428571428571</ele><time>2026-04-21T06:22:35.271Z</time></trkpt><trkpt lat="41.9423697" lon="12.5346967"><ele>47.14285714285714</ele><time>2026-04-21T06:22:39.271Z</time></trkpt><trkpt lat="41.9423775" lon="12.5346049"><ele>47.57142857142857</ele><time>2026-04-21T06:22:45.271Z</time></trkpt><trkpt lat="41.942388" lon="12.5345157"><ele>48.0</ele><time>2026-04-21T06:22:52.271Z</time></trkpt><trkpt lat="41.9424356" lon="12.5344376"><ele>47.857142857142854</ele><time>2026-04-21T06:22:59.271Z</time></trkpt><trkpt lat="41.9424771" lon="12.5343532"><ele>47.714285714285715</ele><time>2026-04-21T06:23:05.271Z</time></trkpt><trkpt lat="41.9425012" lon="12.5342588"><ele>47.57142857142857</ele><time>2026-04-21T06:23:09.271Z</time></trkpt><trkpt lat="41.9425526" lon="12.5342001"><ele>47.42857142857143</ele><time>2026-04-21T06:23:13.271Z</time></trkpt><trkpt lat="41.9425939" lon="12.5341235"><ele>47.285714285714285</ele><time>2026-04-21T06:23:17.27Z</time></trkpt><trkpt lat="41.9425901" lon="12.5340198"><ele>47.14285714285714</ele><time>2026-04-21T06:23:22.271Z</time></trkpt><trkpt lat="41.9426075" lon="12.5339345"><ele>47.0</ele><time>2026-04-21T06:23:28.271Z</time></trkpt><trkpt lat="41.9426437" lon="12.5338509"><ele>47.0</ele><time>2026-04-21T06:23:33.271Z</time></trkpt><trkpt lat="41.9426462" lon="12.5337661"><ele>47.0</ele><time>2026-04-21T06:23:37.271Z</time></trkpt><trkpt lat="41.9426525" lon="12.5336818"><ele>47.0</ele><time>2026-04-21T06:23:46.27Z</time></trkpt><trkpt lat="41.9426393" lon="12.5335833"><ele>47.0</ele><time>2026-04-21T06:23:52.27Z</time></trkpt><trkpt lat="41.9426351" lon="12.5334821"><ele>47.0</ele><time>2026-04-21T06:23:55.271Z</time></trkpt><trkpt lat="41.9426355" lon="12.533393"><ele>47.0</ele><time>2026-04-21T06:24:00.271Z</time></trkpt><trkpt lat="41.9426366" lon="12.5333078"><ele>47.0</ele><time>2026-04-21T06:24:03.271Z</time></trkpt><trkpt lat="41.9426388" lon="12.5332132"><ele>47.0</ele><time>2026-04-21T06:24:07.271Z</time></trkpt><trkpt lat="41.9426429" lon="12.5331286"><ele>47.0</ele><time>2026-04-21T06:24:10.27Z</time></trkpt><trkpt lat="41.9426588" lon="12.5330233"><ele>47.0</ele><time>2026-04-21T06:24:14.27Z</time></trkpt><trkpt lat="41.9426414" lon="12.5329326"><ele>47.0</ele><time>2026-04-21T06:24:17.271Z</time></trkpt><trkpt lat="41.9426334" lon="12.5328455"><ele>47.0</ele><time>2026-04-21T06:24:20.27Z</time></trkpt><trkpt lat="41.9426315" lon="12.5327539"><ele>47.0</ele><time>2026-04-21T06:24:24.271Z</time></trkpt><trkpt lat="41.9426183" lon="12.5326618"><ele>47.0</ele><time>2026-04-21T06:24:29.271Z</time></trkpt><trkpt lat="41.9425794" lon="12.5325942"><ele>47.0</ele><time>2026-04-21T06:24:34.27Z</time></trkpt><trkpt lat="41.9425369" lon="12.5325143"><ele>47.0</ele><time>2026-04-21T06:24:40.271Z</time></trkpt><trkpt lat="41.9425171" lon="12.5324224"><ele>47.0</ele><time>2026-04-21T06:24:48.271Z</time></trkpt><trkpt lat="41.9425021" lon="12.5323263"><ele>47.0</ele><time>2026-04-21T06:24:52.27Z</time></trkpt><trkpt lat="41.9425148" lon="12.5322273"><ele>47.0</ele><time>2026-04-21T06:24:56.27Z</time></trkpt><trkpt lat="41.9425251" lon="12.5321396"><ele>47.0</ele><time>2026-04-21T06:24:59.27Z</time></trkpt><trkpt lat="41.9425373" lon="12.5320372"><ele>47.0</ele><time>2026-04-21T06:25:04.271Z</time></trkpt><trkpt lat="41.9425729" lon="12.5319476"><ele>47.0</ele><time>2026-04-21T06:25:09.27Z</time></trkpt><trkpt lat="41.9425879" lon="12.5318524"><ele>47.0</ele><time>2026-04-21T06:25:16.27Z</time></trkpt><trkpt lat="41.9425773" lon="12.5317598"><ele>47.0</ele><time>2026-04-21T06:25:24.271Z</time></trkpt><trkpt lat="41.942555" lon="12.5316407"><ele>47.0</ele><time>2026-04-21T06:25:32.27Z</time></trkpt><trkpt lat="41.9425143" lon="12.5315477"><ele>47.0</ele><time>2026-04-21T06:25:35.271Z</time></trkpt><trkpt lat="41.9424978" lon="12.5314602"><ele>47.0</ele><time>2026-04-21T06:25:39.27Z</time></trkpt><trkpt lat="41.9424866" lon="12.5313561"><ele>47.0</ele><time>2026-04-21T06:25:43.271Z</time></trkpt><trkpt lat="41.9424669" lon="12.5312552"><ele>47.0</ele><time>2026-04-21T06:25:47.271Z</time></trkpt><trkpt lat="41.9424677" lon="12.5311598"><ele>47.0</ele><time>2026-04-21T06:25:53.271Z</time></trkpt><trkpt lat="41.9424378" lon="12.5310785"><ele>47.0</ele><time>2026-04-21T06:25:57.271Z</time></trkpt><trkpt lat="41.9424003" lon="12.5309977"><ele>47.0</ele><time>2026-04-21T06:26:03.271Z</time></trkpt><trkpt lat="41.9423681" lon="12.5308962"><ele>47.0</ele><time>2026-04-21T06:26:08.271Z</time></trkpt><trkpt lat="41.9423276" lon="12.5307906"><ele>46.14285714285714</ele><time>2026-04-21T06:26:12.27Z</time></trkpt><trkpt lat="41.9423234" lon="12.530706"><ele>45.285714285714285</ele><time>2026-04-21T06:26:15.27Z</time></trkpt><trkpt lat="41.9422969" lon="12.5306135"><ele>44.42857142857143</ele><time>2026-04-21T06:26:20.271Z</time></trkpt><trkpt lat="41.9422773" lon="12.5305308"><ele>43.57142857142857</ele><time>2026-04-21T06:26:25.271Z</time></trkpt><trkpt lat="41.9422407" lon="12.5304548"><ele>42.714285714285715</ele><time>2026-04-21T06:26:31.271Z</time></trkpt><trkpt lat="41.9421772" lon="12.5304156"><ele>41.857142857142854</ele><time>2026-04-21T06:26:35.271Z</time></trkpt><trkpt lat="41.9421117" lon="12.5303986"><ele>41.0</ele><time>2026-04-21T06:26:40.271Z</time></trkpt><trkpt lat="41.9420759" lon="12.5303134"><ele>40.42857142857142</ele><time>2026-04-21T06:26:44.27Z</time></trkpt><trkpt lat="41.9420655" lon="12.5302104"><ele>39.857142857142854</ele><time>2026-04-21T06:26:48.271Z</time></trkpt><trkpt lat="41.942066" lon="12.5301178"><ele>39.285714285714285</ele><time>2026-04-21T06:26:51.271Z</time></trkpt><trkpt lat="41.9420568" lon="12.5300192"><ele>38.71428571428571</ele><time>2026-04-21T06:26:55.27Z</time></trkpt><trkpt lat="41.9420596" lon="12.5299176"><ele>38.14285714285714</ele><time>2026-04-21T06:26:58.271Z</time></trkpt><trkpt lat="41.9420663" lon="12.5298229"><ele>37.57142857142857</ele><time>2026-04-21T06:27:01.271Z</time></trkpt><trkpt lat="41.9420489" lon="12.5297228"><ele>37.0</ele><time>2026-04-21T06:27:05.27Z</time></trkpt><trkpt lat="41.942018" lon="12.5296364"><ele>37.142857142857146</ele><time>2026-04-21T06:27:08.271Z</time></trkpt><trkpt lat="41.9420398" lon="12.5295526"><ele>37.285714285714285</ele><time>2026-04-21T06:27:12.271Z</time></trkpt><trkpt lat="41.9420163" lon="12.5294643"><ele>37.42857142857143</ele><time>2026-04-21T06:27:17.27Z</time></trkpt><trkpt lat="41.9419758" lon="12.5293985"><ele>37.57142857142857</ele><time>2026-04-21T06:27:20.271Z</time></trkpt><trkpt lat="41.9419096" lon="12.5293588"><ele>37.714285714285715</ele><time>2026-04-21T06:27:25.271Z</time></trkpt><trkpt lat="41.9418143" lon="12.5293244"><ele>37.857142857142854</ele><time>2026-04-21T06:27:27.271Z</time></trkpt><trkpt lat="41.9417547" lon="12.5292714"><ele>38.0</ele><time>2026-04-21T06:27:29.271Z</time></trkpt><trkpt lat="41.9417141" lon="12.5291755"><ele>38.285714285714285</ele><time>2026-04-21T06:27:32.27Z</time></trkpt><trkpt lat="41.9416421" lon="12.5291055"><ele>38.57142857142858</ele><time>2026-04-21T06:27:35.27Z</time></trkpt><trkpt lat="41.9415944" lon="12.52905"><ele>38.85714285714286</ele><time>2026-04-21T06:27:38.271Z</time></trkpt><trkpt lat="41.9415604" lon="12.5289713"><ele>39.14285714285714</ele><time>2026-04-21T06:27:42.271Z</time></trkpt><trkpt lat="41.9415818" lon="12.5288836"><ele>39.42857142857143</ele><time>2026-04-21T06:27:52.271Z</time></trkpt><trkpt lat="41.9415278" lon="12.5288371"><ele>39.714285714285715</ele><time>2026-04-21T06:27:56.271Z</time></trkpt><trkpt lat="41.9414726" lon="12.5288814"><ele>40.0</ele><time>2026-04-21T06:28:01.271Z</time></trkpt><trkpt lat="41.9414103" lon="12.5288529"><ele>40.0</ele><time>2026-04-21T06:28:06.271Z</time></trkpt><trkpt lat="41.9413411" lon="12.528857"><ele>40.0</ele><time>2026-04-21T06:28:16.27Z</time></trkpt><trkpt lat="41.9412736" lon="12.5288252"><ele>40.0</ele><time>2026-04-21T06:28:22.271Z</time></trkpt><trkpt lat="41.9412114" lon="12.5287712"><ele>40.0</ele><time>2026-04-21T06:28:26.271Z</time></trkpt><trkpt lat="41.9411778" lon="12.5286616"><ele>40.0</ele><time>2026-04-21T06:28:28.27Z</time></trkpt><trkpt lat="41.9411454" lon="12.5285842"><ele>40.0</ele><time>2026-04-21T06:28:30.271Z</time></trkpt><trkpt lat="41.9410908" lon="12.5285267"><ele>40.0</ele><time>2026-04-21T06:28:33.271Z</time></trkpt><trkpt lat="41.9410352" lon="12.5284867"><ele>39.57142857142857</ele><time>2026-04-21T06:28:38.27Z</time></trkpt><trkpt lat="41.9409633" lon="12.5284672"><ele>39.142857142857146</ele><time>2026-04-21T06:28:42.271Z</time></trkpt><trkpt lat="41.9408853" lon="12.5284582"><ele>38.714285714285715</ele><time>2026-04-21T06:28:46.271Z</time></trkpt><trkpt lat="41.940815" lon="12.5284805"><ele>38.285714285714285</ele><time>2026-04-21T06:28:50.271Z</time></trkpt><trkpt lat="41.940755" lon="12.5285219"><ele>37.857142857142854</ele><time>2026-04-21T06:28:55.271Z</time></trkpt><trkpt lat="41.9407395" lon="12.528435"><ele>37.42857142857143</ele><time>2026-04-21T06:29:00.271Z</time></trkpt><trkpt lat="41.9406762" lon="12.5283801"><ele>37.0</ele><time>2026-04-21T06:29:04.27Z</time></trkpt><trkpt lat="41.9406044" lon="12.5283686"><ele>36.285714285714285</ele><time>2026-04-21T06:29:08.271Z</time></trkpt><trkpt lat="41.9405375" lon="12.5283373"><ele>35.57142857142857</ele><time>2026-04-21T06:29:12.271Z</time></trkpt><trkpt lat="41.9404596" lon="12.528301"><ele>34.857142857142854</ele><time>2026-04-21T06:29:17.271Z</time></trkpt><trkpt lat="41.9404031" lon="12.5282455"><ele>34.14285714285714</ele><time>2026-04-21T06:29:21.271Z</time></trkpt><trkpt lat="41.9403469" lon="12.5281767"><ele>33.42857142857142</ele><time>2026-04-21T06:29:25.27Z</time></trkpt><trkpt lat="41.940324" lon="12.52807"><ele>32.714285714285715</ele><time>2026-04-21T06:29:28.271Z</time></trkpt><trkpt lat="41.9402961" lon="12.5279907"><ele>32.0</ele><time>2026-04-21T06:29:31.271Z</time></trkpt><trkpt lat="41.9402191" lon="12.5280069"><ele>32.0</ele><time>2026-04-21T06:29:36.27Z</time></trkpt><trkpt lat="41.9401629" lon="12.5280679"><ele>31.999999999999996</ele><time>2026-04-21T06:29:40.27Z</time></trkpt><trkpt lat="41.9400865" lon="12.5280513"><ele>32.0</ele><time>2026-04-21T06:29:45.271Z</time></trkpt><trkpt lat="41.9400644" lon="12.527964"><ele>32.0</ele><time>2026-04-21T06:29:49.271Z</time></trkpt><trkpt lat="41.9400236" lon="12.5278874"><ele>31.999999999999996</ele><time>2026-04-21T06:29:51.271Z</time></trkpt><trkpt lat="41.9399673" lon="12.5278381"><ele>32.0</ele><time>2026-04-21T06:29:53.27Z</time></trkpt><trkpt lat="41.9399104" lon="12.5277904"><ele>32.0</ele><time>2026-04-21T06:29:56.271Z</time></trkpt><trkpt lat="41.9398422" lon="12.527837"><ele>32.285714285714285</ele><time>2026-04-21T06:30:02.271Z</time></trkpt><trkpt lat="41.9397812" lon="12.5278623"><ele>32.57142857142857</ele><time>2026-04-21T06:30:06.271Z</time></trkpt><trkpt lat="41.9397214" lon="12.527818"><ele>32.857142857142854</ele><time>2026-04-21T06:30:10.271Z</time></trkpt><trkpt lat="41.9397039" lon="12.5277155"><ele>33.14285714285714</ele><time>2026-04-21T06:30:12.271Z</time></trkpt><trkpt lat="41.9396743" lon="12.5276364"><ele>33.42857142857143</ele><time>2026-04-21T06:30:14.271Z</time></trkpt><trkpt lat="41.9396077" lon="12.5276063"><ele>33.71428571428571</ele><time>2026-04-21T06:30:17.27Z</time></trkpt><trkpt lat="41.9395479" lon="12.5275646"><ele>34.0</ele><time>2026-04-21T06:30:21.271Z</time></trkpt><trkpt lat="41.9395016" lon="12.5274943"><ele>33.99999999999999</ele><time>2026-04-21T06:30:25.271Z</time></trkpt><trkpt lat="41.939447" lon="12.5274279"><ele>34.0</ele><time>2026-04-21T06:30:31.27Z</time></trkpt><trkpt lat="41.9394017" lon="12.5273626"><ele>34.0</ele><time>2026-04-21T06:30:36.27Z</time></trkpt><trkpt lat="41.9393558" lon="12.5272967"><ele>34.0</ele><time>2026-04-21T06:30:41.27Z</time></trkpt><trkpt lat="41.9393357" lon="12.5272118"><ele>34.0</ele><time>2026-04-21T06:30:45.271Z</time></trkpt><trkpt lat="41.939267" lon="12.5272009"><ele>33.99999999999999</ele><time>2026-04-21T06:30:48.271Z</time></trkpt><trkpt lat="41.9392039" lon="12.5271007"><ele>34.0</ele><time>2026-04-21T06:30:51.27Z</time></trkpt><trkpt lat="41.9391919" lon="12.5270158"><ele>33.857142857142854</ele><time>2026-04-21T06:30:53.271Z</time></trkpt><trkpt lat="41.9391195" lon="12.5270213"><ele>33.714285714285715</ele><time>2026-04-21T06:30:59.271Z</time></trkpt><trkpt lat="41.9390494" lon="12.5269727"><ele>33.57142857142857</ele><time>2026-04-21T06:31:02.271Z</time></trkpt><trkpt lat="41.9390883" lon="12.5268847"><ele>33.42857142857143</ele><time>2026-04-21T06:31:05.271Z</time></trkpt><trkpt lat="41.9391233" lon="12.5267953"><ele>33.285714285714285</ele><time>2026-04-21T06:31:10.271Z</time></trkpt><trkpt lat="41.9390921" lon="12.5267139"><ele>33.14285714285714</ele><time>2026-04-21T06:31:20.271Z</time></trkpt><trkpt lat="41.9390297" lon="12.5266606"><ele>33.0</ele><time>2026-04-21T06:31:23.271Z</time></trkpt><trkpt lat="41.9389712" lon="12.5266186"><ele>33.0</ele><time>2026-04-21T06:31:26.27Z</time></trkpt><trkpt lat="41.9389059" lon="12.5265668"><ele>33.0</ele><time>2026-04-21T06:31:29.27Z</time></trkpt><trkpt lat="41.9388383" lon="12.5265104"><ele>33.0</ele><time>2026-04-21T06:31:33.271Z</time></trkpt><trkpt lat="41.9387734" lon="12.5264517"><ele>33.0</ele><time>2026-04-21T06:31:36.271Z</time></trkpt><trkpt lat="41.9387264" lon="12.5263936"><ele>33.0</ele><time>2026-04-21T06:31:41.27Z</time></trkpt><trkpt lat="41.9386825" lon="12.5263311"><ele>33.0</ele><time>2026-04-21T06:31:45.271Z</time></trkpt><trkpt lat="41.938631" lon="12.52628"><ele>33.0</ele><time>2026-04-21T06:31:48.271Z</time></trkpt><trkpt lat="41.9385656" lon="12.5262148"><ele>31.857142857142858</ele><time>2026-04-21T06:31:52.269Z</time></trkpt><trkpt lat="41.9384976" lon="12.526175"><ele>30.714285714285715</ele><time>2026-04-21T06:31:55.27Z</time></trkpt><trkpt lat="41.9384419" lon="12.5261246"><ele>29.571428571428573</ele><time>2026-04-21T06:32:00.269Z</time></trkpt><trkpt lat="41.9383726" lon="12.5260919"><ele>28.42857142857143</ele><time>2026-04-21T06:32:04.27Z</time></trkpt><trkpt lat="41.9383117" lon="12.5260564"><ele>27.285714285714285</ele><time>2026-04-21T06:32:08.27Z</time></trkpt><trkpt lat="41.9382446" lon="12.5260166"><ele>26.142857142857146</ele><time>2026-04-21T06:32:12.269Z</time></trkpt><trkpt lat="41.9381852" lon="12.5259552"><ele>25.0</ele><time>2026-04-21T06:32:16.27Z</time></trkpt><trkpt lat="41.9381226" lon="12.5258783"><ele>24.42857142857143</ele><time>2026-04-21T06:32:21.269Z</time></trkpt><trkpt lat="41.9380602" lon="12.5258154"><ele>23.857142857142858</ele><time>2026-04-21T06:32:25.27Z</time></trkpt><trkpt lat="41.9380011" lon="12.5257702"><ele>23.285714285714285</ele><time>2026-04-21T06:32:30.27Z</time></trkpt><trkpt lat="41.9379541" lon="12.525706"><ele>22.714285714285715</ele><time>2026-04-21T06:32:35.27Z</time></trkpt><trkpt lat="41.9379041" lon="12.5256413"><ele>22.142857142857142</ele><time>2026-04-21T06:32:39.269Z</time></trkpt><trkpt lat="41.9378605" lon="12.5255597"><ele>21.571428571428573</ele><time>2026-04-21T06:32:45.27Z</time></trkpt><trkpt lat="41.9377883" lon="12.5255116"><ele>21.0</ele><time>2026-04-21T06:32:49.269Z</time></trkpt><trkpt lat="41.9377349" lon="12.5254602"><ele>20.714285714285715</ele><time>2026-04-21T06:32:53.27Z</time></trkpt><trkpt lat="41.9376975" lon="12.5253899"><ele>20.42857142857143</ele><time>2026-04-21T06:32:57.27Z</time></trkpt><trkpt lat="41.9376644" lon="12.5252995"><ele>20.142857142857142</ele><time>2026-04-21T06:33:03.27Z</time></trkpt><trkpt lat="41.9376156" lon="12.5252265"><ele>19.857142857142858</ele><time>2026-04-21T06:33:08.27Z</time></trkpt><trkpt lat="41.9375577" lon="12.5251873"><ele>19.571428571428573</ele><time>2026-04-21T06:33:12.269Z</time></trkpt><trkpt lat="41.9374958" lon="12.5251321"><ele>19.285714285714285</ele><time>2026-04-21T06:33:16.269Z</time></trkpt><trkpt lat="41.9374305" lon="12.5250889"><ele>19.0</ele><time>2026-04-21T06:33:20.269Z</time></trkpt><trkpt lat="41.9373718" lon="12.5250468"><ele>19.71428571428571</ele><time>2026-04-21T06:33:24.27Z</time></trkpt><trkpt lat="41.9373088" lon="12.5249968"><ele>20.42857142857143</ele><time>2026-04-21T06:33:29.27Z</time></trkpt><trkpt lat="41.9372507" lon="12.524959"><ele>21.142857142857142</ele><time>2026-04-21T06:33:34.27Z</time></trkpt><trkpt lat="41.9371929" lon="12.5249092"><ele>21.857142857142854</ele><time>2026-04-21T06:33:39.27Z</time></trkpt><trkpt lat="41.9371313" lon="12.5248695"><ele>22.57142857142857</ele><time>2026-04-21T06:33:43.27Z</time></trkpt><trkpt lat="41.9370643" lon="12.524831"><ele>23.285714285714285</ele><time>2026-04-21T06:33:48.27Z</time></trkpt><trkpt lat="41.9369951" lon="12.5247755"><ele>24.0</ele><time>2026-04-21T06:33:53.27Z</time></trkpt><trkpt lat="41.9369332" lon="12.5247144"><ele>24.0</ele><time>2026-04-21T06:33:57.27Z</time></trkpt><trkpt lat="41.9368773" lon="12.5246546"><ele>24.0</ele><time>2026-04-21T06:34:02.27Z</time></trkpt><trkpt lat="41.9368318" lon="12.5245579"><ele>24.0</ele><time>2026-04-21T06:34:11.27Z</time></trkpt><trkpt lat="41.9367682" lon="12.524502"><ele>24.0</ele><time>2026-04-21T06:34:15.27Z</time></trkpt><trkpt lat="41.9367031" lon="12.524449"><ele>24.0</ele><time>2026-04-21T06:34:19.27Z</time></trkpt><trkpt lat="41.9366509" lon="12.5243944"><ele>24.0</ele><time>2026-04-21T06:34:23.271Z</time></trkpt><trkpt lat="41.9365914" lon="12.5243236"><ele>23.999999999999996</ele><time>2026-04-21T06:34:28.271Z</time></trkpt><trkpt lat="41.9365512" lon="12.5242533"><ele>24.0</ele><time>2026-04-21T06:34:31.271Z</time></trkpt><trkpt lat="41.9364998" lon="12.5241946"><ele>24.0</ele><time>2026-04-21T06:34:35.271Z</time></trkpt><trkpt lat="41.9364472" lon="12.5241253"><ele>24.0</ele><time>2026-04-21T06:34:40.27Z</time></trkpt><trkpt lat="41.9364005" lon="12.5240467"><ele>24.0</ele><time>2026-04-21T06:34:45.271Z</time></trkpt><trkpt lat="41.9363485" lon="12.5239809"><ele>23.999999999999996</ele><time>2026-04-21T06:34:50.27Z</time></trkpt><trkpt lat="41.9363056" lon="12.5239127"><ele>24.0</ele><time>2026-04-21T06:34:55.271Z</time></trkpt><trkpt lat="41.9362511" lon="12.523835"><ele>23.999999999999996</ele><time>2026-04-21T06:35:00.271Z</time></trkpt><trkpt lat="41.9362103" lon="12.5237532"><ele>24.0</ele><time>2026-04-21T06:35:05.27Z</time></trkpt><trkpt lat="41.9361675" lon="12.5236899"><ele>24.0</ele><time>2026-04-21T06:35:10.271Z</time></trkpt><trkpt lat="41.9361292" lon="12.5236147"><ele>24.0</ele><time>2026-04-21T06:35:16.27Z</time></trkpt><trkpt lat="41.9360658" lon="12.5236324"><ele>24.0</ele><time>2026-04-21T06:35:20.27Z</time></trkpt><trkpt lat="41.936051" lon="12.52372"><ele>23.999999999999996</ele><time>2026-04-21T06:35:33.271Z</time></trkpt><trkpt lat="41.936089" lon="12.5237925"><ele>24.0</ele><time>2026-04-21T06:35:39.271Z</time></trkpt><trkpt lat="41.9360882" lon="12.5238824"><ele>23.999999999999996</ele><time>2026-04-21T06:35:44.271Z</time></trkpt><trkpt lat="41.9360166" lon="12.52386"><ele>24.0</ele><time>2026-04-21T06:35:58.27Z</time></trkpt><trkpt lat="41.9359624" lon="12.5238086"><ele>24.0</ele><time>2026-04-21T06:36:01.27Z</time></trkpt><trkpt lat="41.935918" lon="12.5237367"><ele>24.0</ele><time>2026-04-21T06:36:06.271Z</time></trkpt><trkpt lat="41.9358587" lon="12.5236715"><ele>24.0</ele><time>2026-04-21T06:36:12.271Z</time></trkpt><trkpt lat="41.935797" lon="12.5236113"><ele>23.999999999999996</ele><time>2026-04-21T06:36:16.27Z</time></trkpt><trkpt lat="41.9357471" lon="12.5235537"><ele>24.0</ele><time>2026-04-21T06:36:21.271Z</time></trkpt><trkpt lat="41.9356742" lon="12.5235058"><ele>23.428571428571427</ele><time>2026-04-21T06:36:25.271Z</time></trkpt><trkpt lat="41.9356204" lon="12.5234392"><ele>22.857142857142858</ele><time>2026-04-21T06:36:30.27Z</time></trkpt><trkpt lat="41.9355657" lon="12.5233864"><ele>22.285714285714285</ele><time>2026-04-21T06:36:36.271Z</time></trkpt><trkpt lat="41.935514" lon="12.5233264"><ele>21.714285714285715</ele><time>2026-04-21T06:36:40.271Z</time></trkpt><trkpt lat="41.9354532" lon="12.5232682"><ele>21.142857142857142</ele><time>2026-04-21T06:36:45.27Z</time></trkpt><trkpt lat="41.9353892" lon="12.5232136"><ele>20.57142857142857</ele><time>2026-04-21T06:36:50.271Z</time></trkpt><trkpt lat="41.9353308" lon="12.5231576"><ele>20.0</ele><time>2026-04-21T06:36:54.271Z</time></trkpt><trkpt lat="41.9352772" lon="12.5230876"><ele>20.0</ele><time>2026-04-21T06:36:59.271Z</time></trkpt><trkpt lat="41.9352268" lon="12.5230198"><ele>20.0</ele><time>2026-04-21T06:37:04.271Z</time></trkpt><trkpt lat="41.9351668" lon="12.5229457"><ele>20.0</ele><time>2026-04-21T06:37:10.271Z</time></trkpt><trkpt lat="41.935117" lon="12.5228898"><ele>20.0</ele><time>2026-04-21T06:37:14.271Z</time></trkpt><trkpt lat="41.9350706" lon="12.5228128"><ele>20.0</ele><time>2026-04-21T06:37:19.27Z</time></trkpt><trkpt lat="41.935016" lon="12.5227698"><ele>20.0</ele><time>2026-04-21T06:37:23.27Z</time></trkpt><trkpt lat="41.9349738" lon="12.5226895"><ele>20.0</ele><time>2026-04-21T06:37:30.27Z</time></trkpt><trkpt lat="41.9349139" lon="12.5226321"><ele>20.857142857142858</ele><time>2026-04-21T06:37:36.27Z</time></trkpt><trkpt lat="41.9348492" lon="12.5225983"><ele>21.714285714285715</ele><time>2026-04-21T06:37:40.271Z</time></trkpt><trkpt lat="41.9347876" lon="12.5225522"><ele>22.57142857142857</ele><time>2026-04-21T06:37:44.271Z</time></trkpt><trkpt lat="41.9347291" lon="12.5225139"><ele>23.42857142857143</ele><time>2026-04-21T06:37:48.271Z</time></trkpt><trkpt lat="41.9346657" lon="12.522481"><ele>24.28571428571429</ele><time>2026-04-21T06:37:54.271Z</time></trkpt><trkpt lat="41.9345987" lon="12.5224293"><ele>25.142857142857142</ele><time>2026-04-21T06:38:01.27Z</time></trkpt><trkpt lat="41.9345461" lon="12.5223765"><ele>26.0</ele><time>2026-04-21T06:38:04.271Z</time></trkpt><trkpt lat="41.9344859" lon="12.5223362"><ele>26.0</ele><time>2026-04-21T06:38:08.27Z</time></trkpt><trkpt lat="41.9344381" lon="12.5222702"><ele>26.0</ele><time>2026-04-21T06:38:13.271Z</time></trkpt><trkpt lat="41.9343962" lon="12.522188"><ele>26.0</ele><time>2026-04-21T06:38:17.27Z</time></trkpt><trkpt lat="41.9343489" lon="12.5220975"><ele>26.0</ele><time>2026-04-21T06:38:22.27Z</time></trkpt><trkpt lat="41.9343017" lon="12.5220286"><ele>26.0</ele><time>2026-04-21T06:38:26.27Z</time></trkpt><trkpt lat="41.9342785" lon="12.5219471"><ele>26.0</ele><time>2026-04-21T06:38:31.27Z</time></trkpt><trkpt lat="41.9342252" lon="12.5218896"><ele>26.0</ele><time>2026-04-21T06:38:35.271Z</time></trkpt><trkpt lat="41.9341493" lon="12.5218649"><ele>26.428571428571427</ele><time>2026-04-21T06:38:39.27Z</time></trkpt><trkpt lat="41.934093" lon="12.5217916"><ele>26.85714285714286</ele><time>2026-04-21T06:38:44.271Z</time></trkpt><trkpt lat="41.9340406" lon="12.5216936"><ele>27.28571428571429</ele><time>2026-04-21T06:38:49.271Z</time></trkpt><trkpt lat="41.934011" lon="12.521607"><ele>27.714285714285715</ele><time>2026-04-21T06:38:53.27Z</time></trkpt><trkpt lat="41.9339631" lon="12.5215493"><ele>28.142857142857146</ele><time>2026-04-21T06:38:57.271Z</time></trkpt><trkpt lat="41.9339083" lon="12.5214845"><ele>28.571428571428577</ele><time>2026-04-21T06:39:01.271Z</time></trkpt><trkpt lat="41.9338543" lon="12.521439"><ele>29.000000000000004</ele><time>2026-04-21T06:39:03.271Z</time></trkpt><trkpt lat="41.9337921" lon="12.5213827"><ele>29.000000000000004</ele><time>2026-04-21T06:39:06.271Z</time></trkpt><trkpt lat="41.9337402" lon="12.5213285"><ele>29.0</ele><time>2026-04-21T06:39:11.271Z</time></trkpt><trkpt lat="41.9336845" lon="12.5212788"><ele>29.000000000000004</ele><time>2026-04-21T06:39:15.271Z</time></trkpt><trkpt lat="41.9336257" lon="12.5212409"><ele>29.000000000000004</ele><time>2026-04-21T06:39:21.27Z</time></trkpt><trkpt lat="41.9335647" lon="12.5212071"><ele>29.0</ele><time>2026-04-21T06:39:29.271Z</time></trkpt><trkpt lat="41.933498" lon="12.5212407"><ele>29.000000000000004</ele><time>2026-04-21T06:39:35.271Z</time></trkpt><trkpt lat="41.9334406" lon="12.5212044"><ele>29.000000000000004</ele><time>2026-04-21T06:39:40.271Z</time></trkpt><trkpt lat="41.9334116" lon="12.5211283"><ele>29.42857142857143</ele><time>2026-04-21T06:39:47.271Z</time></trkpt><trkpt lat="41.9333872" lon="12.521048"><ele>29.857142857142858</ele><time>2026-04-21T06:39:52.271Z</time></trkpt><trkpt lat="41.9333903" lon="12.5209611"><ele>30.285714285714285</ele><time>2026-04-21T06:39:56.271Z</time></trkpt><trkpt lat="41.9333403" lon="12.5208822"><ele>30.714285714285715</ele><time>2026-04-21T06:39:59.27Z</time></trkpt><trkpt lat="41.9333562" lon="12.5207833"><ele>31.14285714285714</ele><time>2026-04-21T06:40:02.271Z</time></trkpt><trkpt lat="41.9334013" lon="12.520687"><ele>31.57142857142857</ele><time>2026-04-21T06:40:05.27Z</time></trkpt><trkpt lat="41.9334649" lon="12.5206167"><ele>32.0</ele><time>2026-04-21T06:40:08.271Z</time></trkpt><trkpt lat="41.9334933" lon="12.5205234"><ele>32.0</ele><time>2026-04-21T06:40:11.271Z</time></trkpt><trkpt lat="41.9335875" lon="12.5204006"><ele>32.0</ele><time>2026-04-21T06:40:12.271Z</time></trkpt><trkpt lat="41.933634" lon="12.5203247"><ele>32.0</ele><time>2026-04-21T06:40:15.27Z</time></trkpt><trkpt lat="41.9337737" lon="12.5203377"><ele>32.0</ele><time>2026-04-21T06:40:20.271Z</time></trkpt><trkpt lat="41.9338415" lon="12.5203541"><ele>32.0</ele><time>2026-04-21T06:40:22.271Z</time></trkpt><trkpt lat="41.9339139" lon="12.5203321"><ele>33.14285714285714</ele><time>2026-04-21T06:40:37.269Z</time></trkpt><trkpt lat="41.9339568" lon="12.5202533"><ele>34.285714285714285</ele><time>2026-04-21T06:40:42.27Z</time></trkpt><trkpt lat="41.9339953" lon="12.5201818"><ele>35.42857142857143</ele><time>2026-04-21T06:40:45.269Z</time></trkpt><trkpt lat="41.9340331" lon="12.5201071"><ele>36.57142857142857</ele><time>2026-04-21T06:40:48.269Z</time></trkpt><trkpt lat="41.9340822" lon="12.5200353"><ele>37.714285714285715</ele><time>2026-04-21T06:40:54.27Z</time></trkpt><trkpt lat="41.9340975" lon="12.5199491"><ele>38.857142857142854</ele><time>2026-04-21T06:40:58.269Z</time></trkpt><trkpt lat="41.9341308" lon="12.5198675"><ele>40.0</ele><time>2026-04-21T06:41:03.27Z</time></trkpt><trkpt lat="41.9341691" lon="12.5197924"><ele>40.0</ele><time>2026-04-21T06:41:12.27Z</time></trkpt><trkpt lat="41.934165" lon="12.5196883"><ele>40.0</ele><time>2026-04-21T06:41:17.27Z</time></trkpt><trkpt lat="41.9341753" lon="12.5195996"><ele>40.0</ele><time>2026-04-21T06:41:19.27Z</time></trkpt><trkpt lat="41.9341914" lon="12.5195161"><ele>40.0</ele><time>2026-04-21T06:41:21.27Z</time></trkpt><trkpt lat="41.9341976" lon="12.5194044"><ele>40.0</ele><time>2026-04-21T06:41:24.27Z</time></trkpt><trkpt lat="41.9342161" lon="12.5193189"><ele>40.0</ele><time>2026-04-21T06:41:27.27Z</time></trkpt><trkpt lat="41.934292" lon="12.5192831"><ele>40.0</ele><time>2026-04-21T06:41:32.27Z</time></trkpt><trkpt lat="41.9343464" lon="12.5192313"><ele>40.5</ele><time>2026-04-21T06:41:38.27Z</time></trkpt><trkpt lat="41.9344363" lon="12.5191674"><ele>41.0</ele><time>2026-04-21T06:41:48.27Z</time></trkpt><trkpt lat="41.9344977" lon="12.5191163"><ele>41.5</ele><time>2026-04-21T06:41:51.27Z</time></trkpt><trkpt lat="41.9346834" lon="12.5190213"><ele>42.0</ele><time>2026-04-21T06:42:04.27Z</time></trkpt><trkpt lat="41.9347632" lon="12.5189914"><ele>42.0</ele><time>2026-04-21T06:42:06.269Z</time></trkpt><trkpt lat="41.9348616" lon="12.5189253"><ele>42.0</ele><time>2026-04-21T06:42:08.27Z</time></trkpt><trkpt lat="41.934927" lon="12.5188705"><ele>42.0</ele><time>2026-04-21T06:42:10.269Z</time></trkpt><trkpt lat="41.9349747" lon="12.5188124"><ele>42.0</ele><time>2026-04-21T06:42:17.27Z</time></trkpt><trkpt lat="41.9348796" lon="12.5185923"><ele>42.0</ele><time>2026-04-21T06:42:41.766Z</time></trkpt><trkpt lat="41.9350855" lon="12.5187083"><ele>42.666666666666664</ele><time>2026-04-21T06:42:53.273Z</time></trkpt><trkpt lat="41.9351544" lon="12.518706"><ele>43.33333333333333</ele><time>2026-04-21T06:42:56.272Z</time></trkpt><trkpt lat="41.9348435" lon="12.5185749"><ele>44.0</ele><time>2026-04-21T06:43:26.624Z</time></trkpt><trkpt lat="41.93505" lon="12.518725"><ele>46.0</ele><time>2026-04-21T06:43:30.272Z</time></trkpt></trkseg></trk></gpx>